• Join FlightAware (Why Join?)
  • Login
  • US Flag 
05:59PM EDT


 

Airport Tracker/Info


-or-


 

Live Flight TrackerFlight Track Log ✈ CDG1158 ✈ 10-Mar-2014 ✈ ZBAA / PEK - ZSJN / TNA

Flight Track Log - Related Links

Times and Time Zones

All times are in EDT time to prevent confusion due to time zone crossing. See the CDG1158 flight status page for this flight to view local times or setup timezone preferences in your user account.

Time Position Orientation Groundspeed Altitude Reporting Facility
EDT Latitude Longitude Course Direction KTS MPH feet Rate Location/Type
09:59PM 39.4122 116.7202 171° South  Level Estimated
10:00PM 39.3008 116.7425 171° South  Level Estimated
10:01PM 39.2240 116.7579 171° South  Level Estimated
10:02PM 39.1471 116.7733 171° South  Level Estimated
10:03PM 39.0702 116.7886 171° South  Level Estimated
10:04PM 38.9933 116.8039 171° South  Level Estimated
10:05PM 38.9164 116.8192 171° South  Level Estimated
10:06PM 38.8396 116.8344 171° South  Level Estimated
10:07PM 38.7627 116.8496 171° South  Level Estimated
10:08PM 38.6858 116.8647 171° South  Level Estimated
10:09PM 38.6089 116.8799 171° South  Level Estimated
10:10PM 38.5320 116.8950 171° South  Level Estimated
10:11PM 38.4551 116.9100 171° South  Level Estimated
10:12PM 38.3782 116.9250 171° South  Level Estimated
10:13PM 38.3013 116.9400 171° South  Level Estimated
10:14PM 38.2244 116.9550 171° South  Level Estimated
10:15PM 38.1475 116.9699 171° South  Level Estimated
10:16PM 38.0706 116.9848 171° South  Level Estimated
10:17PM 37.9936 116.9997 171° South  Level Estimated
10:18PM 37.9167 117.0145 171° South  Level Estimated
10:19PM 37.8398 117.0294 171° South  Level Estimated
10:20PM 37.7629 117.0441 171° South  Level Estimated
10:21PM 37.6860 117.0589 171° South  Level Estimated
10:22PM 37.6091 117.0736 171° South  Level Estimated
10:23PM 37.5322 117.0883 171° South  Level Estimated
10:24PM 37.4552 117.1030 171° South  Level Estimated
10:25PM 37.3783 117.1176 171° South  Level Estimated
10:26PM 37.3014 117.1322 171° South  Level Estimated
10:27PM 37.2245 117.1467 171° South  Level Estimated
10:28PM 37.1475 117.1613 171° South  Level Estimated
10:29PM 37.0706 117.1758 171° South  Level Estimated
10:30PM 36.9937 117.1903 171° South  Level Estimated
10:31PM 36.9167 117.2047 171° South  Level Estimated
10:32PM 36.8566 117.2160 171° South  Level Estimated
10:33PM 36.8566 117.2160 North  Level Estimated
10:34PM 36.8566 117.2160 North  Level Estimated
10:35PM 36.8566 117.2160 North  Level Estimated
10:36PM 36.8566 117.2160 North  Level Estimated
10:37PM 36.8566 117.2160 North  Level Estimated
10:38PM 36.8566 117.2160 North  Level Estimated
10:39PM 36.8566 117.2160 North  Level Estimated
10:40PM 36.8566 117.2160 North  Level Estimated
10:41PM 36.8566 117.2160 North  Level Estimated
10:42PM 36.8566 117.2160 North  Level Estimated
10:43PM 36.8566 117.2160 North  Level Estimated
10:44PM 36.8566 117.2160 North  Level Estimated
10:45PM 36.8566 117.2160 North  Level Estimated
10:46PM 36.8566 117.2160 North  Level Estimated
10:47PM 36.8566 117.2160 North  Level Estimated
10:48PM 36.8566 117.2160 North  Level Estimated
10:49PM 36.8566 117.2160 North  Level Estimated